createdAt,value
2022-11-01T00:04:45.706Z,12.62
2022-11-01T00:09:45.356Z,12.37
2022-11-01T00:14:48.788Z,12.29
2022-11-01T00:19:45.405Z,12.20
2022-11-01T00:24:45.306Z,12.38
2022-11-01T00:29:45.372Z,12.75
2022-11-01T00:34:45.573Z,11.96
2022-11-01T00:39:45.247Z,12.02
2022-11-01T00:44:45.056Z,12.30
2022-11-01T00:49:45.017Z,12.67
2022-11-01T00:54:44.977Z,13.17
2022-11-01T00:59:44.812Z,12.95
2022-11-01T01:04:52.516Z,13.43
2022-11-01T01:09:44.761Z,13.17
2022-11-01T01:14:47.562Z,13.06
2022-11-01T01:19:44.602Z,12.92
2022-11-01T01:24:44.570Z,12.95
2022-11-01T01:29:44.321Z,12.64
2022-11-01T01:34:44.519Z,12.69
2022-11-01T01:39:44.239Z,12.95
2022-11-01T01:44:44.767Z,12.95
2022-11-01T01:49:44.490Z,12.75
2022-11-01T01:54:44.136Z,12.79
2022-11-01T01:59:44.001Z,12.45
2022-11-01T02:04:44.006Z,12.33
2022-11-01T02:09:43.802Z,12.42
2022-11-01T02:14:47.032Z,12.26
2022-11-01T02:19:43.811Z,11.93
2022-11-01T02:24:43.708Z,12.29
2022-11-01T02:29:43.569Z,12.46
2022-11-01T02:34:43.737Z,12.52
2022-11-01T02:39:43.525Z,12.45
2022-11-01T02:44:43.429Z,12.69
2022-11-01T02:49:43.414Z,12.75
2022-11-01T02:54:43.969Z,12.78
2022-11-01T02:59:43.181Z,12.60
2022-11-01T03:04:43.122Z,12.46
2022-11-01T03:09:43.037Z,12.66
2022-11-01T03:14:46.034Z,12.71
2022-11-01T03:19:43.011Z,12.63
2022-11-01T03:24:42.889Z,13.02
2022-11-01T03:29:42.725Z,13.11
2022-11-01T03:34:42.873Z,13.06
2022-11-01T03:39:42.622Z,13.02
2022-11-01T03:44:43.319Z,13.17
2022-11-01T03:49:42.636Z,13.17
2022-11-01T03:54:42.639Z,13.25
2022-11-01T03:59:42.334Z,13.27
2022-11-01T04:04:50.144Z,13.44
2022-11-01T04:09:42.380Z,13.36
2022-11-01T04:14:45.195Z,13.30
2022-11-01T04:19:42.170Z,12.63
2022-11-01T04:24:42.199Z,13.41
2022-11-01T04:29:41.964Z,13.21
2022-11-01T04:34:42.232Z,13.38
2022-11-01T04:39:41.919Z,13.52
2022-11-01T04:44:41.806Z,13.67
2022-11-01T04:49:41.950Z,13.61
2022-11-01T04:54:41.715Z,13.80
2022-11-01T04:59:41.740Z,13.70
2022-11-01T05:04:41.554Z,13.47
2022-11-01T05:09:41.480Z,13.38
2022-11-01T05:14:44.459Z,13.47
2022-11-01T05:19:41.370Z,13.17
2022-11-01T05:29:41.269Z,13.87
2022-11-01T05:34:41.359Z,13.95
2022-11-01T05:39:41.055Z,13.51
2022-11-01T05:44:41.066Z,13.79
2022-11-01T05:49:41.025Z,13.46
2022-11-01T05:54:40.952Z,13.73
2022-11-01T05:59:40.905Z,13.95
2022-11-01T06:04:40.863Z,13.69
2022-11-01T06:09:48.630Z,14.02
2022-11-01T06:14:51.428Z,13.99
2022-11-01T06:19:40.695Z,13.46
2022-11-01T06:24:40.549Z,13.77
2022-11-01T06:29:40.555Z,13.91
2022-11-01T06:34:42.486Z,14.34
2022-11-01T06:39:40.339Z,14.60
2022-11-01T06:44:40.329Z,15.08
2022-11-01T06:49:40.230Z,15.63
2022-11-01T06:54:40.252Z,15.67
2022-11-01T06:59:40.129Z,15.20
2022-11-01T07:04:40.018Z,15.72
2022-11-01T07:09:39.925Z,15.76
2022-11-01T07:14:43.026Z,15.52
2022-11-01T07:19:39.865Z,14.39
2022-11-01T07:24:40.116Z,15.28
2022-11-01T07:29:39.640Z,15.23
2022-11-01T07:34:39.570Z,15.11
2022-11-01T07:39:39.750Z,15.39
2022-11-01T07:44:39.522Z,15.94
2022-11-01T07:49:39.336Z,16.23
2022-11-01T07:54:39.414Z,16.70
2022-11-01T07:59:39.270Z,16.04
2022-11-01T08:04:39.155Z,15.85
2022-11-01T08:09:39.158Z,16.37
2022-11-01T08:14:42.150Z,16.89
2022-11-01T08:19:39.144Z,16.83
2022-11-01T08:24:39.009Z,17.17
2022-11-01T08:29:38.786Z,17.20
2022-11-01T08:34:39.597Z,17.43
2022-11-01T08:39:46.515Z,17.28
2022-11-01T08:44:38.914Z,17.22
2022-11-01T08:49:38.806Z,17.25
2022-11-01T08:54:38.496Z,17.50
2022-11-01T08:59:38.446Z,17.81
2022-11-01T09:04:38.340Z,18.17
2022-11-01T09:09:38.306Z,17.88
2022-11-01T09:14:41.362Z,17.82
2022-11-01T09:19:38.163Z,17.78
2022-11-01T09:24:38.132Z,18.64
2022-11-01T09:29:37.992Z,18.97
2022-11-01T09:34:37.989Z,18.80
2022-11-01T09:39:37.856Z,19.02
2022-11-01T09:44:37.915Z,19.33
2022-11-01T09:49:37.845Z,19.50
2022-11-01T09:54:37.929Z,19.58
2022-11-01T09:59:37.752Z,19.97
2022-11-01T10:04:37.604Z,20.10
2022-11-01T10:09:37.513Z,20.68
2022-11-01T10:14:40.656Z,20.51
2022-11-01T10:19:37.322Z,20.00
2022-11-01T10:24:37.344Z,20.90
2022-11-01T10:29:37.233Z,20.87
2022-11-01T10:34:37.242Z,20.72
2022-11-01T10:39:54.194Z,21.32
2022-11-01T10:44:39.320Z,21.02
2022-11-01T10:54:38.016Z,20.96
2022-11-01T10:59:36.830Z,21.20
2022-11-01T11:04:44.573Z,20.98
2022-11-01T11:09:43.755Z,20.93
2022-11-01T11:14:39.705Z,21.17
2022-11-01T11:19:36.559Z,20.80
2022-11-01T11:24:36.497Z,20.96
2022-11-01T11:29:36.522Z,21.04
2022-11-01T11:34:36.520Z,21.56
2022-11-01T11:39:36.446Z,21.45
2022-11-01T11:44:36.300Z,21.44
2022-11-01T11:49:36.345Z,21.44
2022-11-01T11:54:37.344Z,21.27
2022-11-01T11:59:36.045Z,21.38
2022-11-01T12:04:36.151Z,21.30
2022-11-01T12:09:35.895Z,21.72
2022-11-01T12:14:38.925Z,21.09
2022-11-01T12:19:35.826Z,20.54
2022-11-01T12:24:35.712Z,20.99
2022-11-01T12:29:35.695Z,21.11
2022-11-01T12:34:38.343Z,21.08
2022-11-01T12:39:36.600Z,21.21
2022-11-01T12:44:35.573Z,21.34
2022-11-01T12:49:35.420Z,21.02
2022-11-01T12:54:43.981Z,21.63
2022-11-01T12:59:35.271Z,21.48
2022-11-01T13:04:35.209Z,21.23
2022-11-01T13:09:35.079Z,21.42
2022-11-01T13:14:38.259Z,21.45
2022-11-01T13:19:34.996Z,21.17
2022-11-01T13:24:34.954Z,21.50
2022-11-01T13:29:34.802Z,21.44
2022-11-01T13:34:34.801Z,21.38
2022-11-01T13:39:34.754Z,21.35
2022-11-01T13:44:35.061Z,21.08
2022-11-01T13:49:34.570Z,21.30
2022-11-01T13:54:34.562Z,21.05
2022-11-01T13:59:42.415Z,21.14
2022-11-01T14:04:34.408Z,20.76
2022-11-01T14:09:34.582Z,21.02
2022-11-01T14:14:37.370Z,20.66
2022-11-01T14:19:34.160Z,20.12
2022-11-01T14:24:35.697Z,20.34
2022-11-01T14:29:34.042Z,20.30
2022-11-01T14:34:34.006Z,20.12
2022-11-01T14:39:33.919Z,19.90
2022-11-01T14:44:33.907Z,19.91
2022-11-01T14:49:33.890Z,19.73
2022-11-01T14:54:33.832Z,19.80
2022-11-01T14:59:33.802Z,19.83
2022-11-01T15:04:34.575Z,19.63
2022-11-01T15:09:33.553Z,19.43
2022-11-01T15:14:36.569Z,19.47
2022-11-01T15:19:40.871Z,19.23
2022-11-01T15:24:33.322Z,18.97
2022-11-01T15:29:33.477Z,18.74
2022-11-01T15:34:33.351Z,18.39
2022-11-01T15:39:33.266Z,18.31
2022-11-01T15:44:33.205Z,17.97
2022-11-01T15:49:33.008Z,17.76
2022-11-01T15:54:32.919Z,17.38
2022-11-01T15:59:32.856Z,17.17
2022-11-01T16:04:32.729Z,17.14
2022-11-01T16:09:33.046Z,16.92
2022-11-01T16:14:37.723Z,16.77
2022-11-01T16:19:32.625Z,16.30
2022-11-01T16:24:32.635Z,16.09
2022-11-01T16:29:32.379Z,16.01
2022-11-01T16:34:40.150Z,16.06
2022-11-01T16:39:32.456Z,15.48
2022-11-01T16:44:32.238Z,15.33
2022-11-01T16:49:39.976Z,15.70
2022-11-01T16:54:39.570Z,15.20
2022-11-01T16:59:32.048Z,14.75
2022-11-01T17:04:39.876Z,14.91
2022-11-01T17:09:31.906Z,14.35
2022-11-01T17:14:35.053Z,14.21
2022-11-01T17:19:31.777Z,13.69
2022-11-01T17:24:31.921Z,13.80
2022-11-01T17:29:31.730Z,13.62
2022-11-01T17:34:31.600Z,13.47
2022-11-01T17:39:31.481Z,13.65
2022-11-01T17:44:31.547Z,14.31
2022-11-01T17:49:31.463Z,14.47
2022-11-01T17:54:31.389Z,14.72
2022-11-01T17:59:31.363Z,14.81
2022-11-01T18:04:36.505Z,14.67
2022-11-01T18:09:32.143Z,13.99
2022-11-01T18:14:34.465Z,13.55
2022-11-01T18:19:31.039Z,13.22
2022-11-01T18:24:32.390Z,13.79
2022-11-01T18:29:30.850Z,13.81
2022-11-01T18:34:31.010Z,13.89
2022-11-01T18:39:30.715Z,13.73
2022-11-01T18:44:38.018Z,13.69
2022-11-01T18:49:30.585Z,13.32
2022-11-01T18:54:30.688Z,13.24
2022-11-01T18:59:30.414Z,13.24
2022-11-01T19:04:30.561Z,13.02
2022-11-01T19:09:37.904Z,13.18
2022-11-01T19:14:33.366Z,12.67
2022-11-01T19:19:30.346Z,12.59
2022-11-01T19:24:30.233Z,12.77
2022-11-01T19:29:30.206Z,12.62
2022-11-01T19:34:29.943Z,12.57
2022-11-01T19:39:30.054Z,12.63
2022-11-01T19:44:29.950Z,12.52
2022-11-01T19:49:29.797Z,12.48
2022-11-01T19:54:29.817Z,12.30
2022-11-01T19:59:30.675Z,12.20
2022-11-01T20:04:29.617Z,12.15
2022-11-01T20:09:29.635Z,12.05
2022-11-01T20:14:32.605Z,12.13
2022-11-01T20:19:29.470Z,11.64
2022-11-01T20:24:29.306Z,11.59
2022-11-01T20:29:29.438Z,11.68
2022-11-01T20:34:29.279Z,11.49
2022-11-01T20:39:29.227Z,11.43
2022-11-01T20:44:29.047Z,11.62
2022-11-01T20:49:28.950Z,11.38
2022-11-01T20:54:28.899Z,11.35
2022-11-01T20:59:28.984Z,10.99
2022-11-01T21:04:28.820Z,10.95
2022-11-01T21:09:28.680Z,11.02
2022-11-01T21:14:32.009Z,11.06
2022-11-01T21:19:28.605Z,10.83
2022-11-01T21:24:28.534Z,11.39
2022-11-01T21:29:28.495Z,11.29
2022-11-01T21:34:29.169Z,10.99
2022-11-01T21:39:28.381Z,10.53
2022-11-01T21:44:28.349Z,9.96
2022-11-01T21:49:28.301Z,10.09
2022-11-01T21:54:28.140Z,10.26
2022-11-01T21:59:28.022Z,10.58
2022-11-01T22:04:28.997Z,10.33
2022-11-01T22:09:28.119Z,10.37
2022-11-01T22:14:30.842Z,10.19
2022-11-01T22:19:27.776Z,9.70
2022-11-01T22:24:28.025Z,9.93
2022-11-01T22:29:27.627Z,10.19
2022-11-01T22:34:27.590Z,10.07
2022-11-01T22:39:27.527Z,9.97
2022-11-01T22:44:28.750Z,10.12
2022-11-01T22:49:27.386Z,10.36
2022-11-01T22:54:27.314Z,9.82
2022-11-01T22:59:32.082Z,9.52
2022-11-01T23:04:28.414Z,9.10
2022-11-01T23:09:27.195Z,9.25
2022-11-01T23:14:30.110Z,9.35
2022-11-01T23:19:27.149Z,9.12
2022-11-01T23:24:26.944Z,8.71
2022-11-01T23:29:26.910Z,8.60
2022-11-01T23:34:26.854Z,8.75
2022-11-01T23:39:26.854Z,8.75
2022-11-01T23:44:26.705Z,8.97
2022-11-01T23:49:26.551Z,8.93
2022-11-01T23:54:26.750Z,8.58
2022-11-01T23:59:26.530Z,8.60
